createdAt,value
2022-10-17T00:01:11.896Z,2.67
2022-10-17T00:03:58.854Z,3.03
2022-10-17T00:06:45.770Z,2.40
2022-10-17T00:09:32.700Z,2.47
2022-10-17T00:12:19.645Z,2.77
2022-10-17T00:15:07.347Z,3.33
2022-10-17T00:17:54.481Z,2.90
2022-10-17T00:20:41.380Z,3.00
2022-10-17T00:23:30.196Z,2.50
2022-10-17T00:26:17.689Z,3.10
2022-10-17T00:29:04.745Z,2.50
2022-10-17T00:31:56.103Z,2.60
2022-10-17T00:34:43.083Z,2.83
2022-10-17T00:37:33.724Z,2.63
2022-10-17T00:40:20.738Z,3.13
2022-10-17T00:43:18.047Z,3.03
2022-10-17T00:46:05.026Z,3.07
2022-10-17T00:48:54.925Z,3.27
2022-10-17T00:51:46.654Z,2.90
2022-10-17T00:54:58.651Z,3.10
2022-10-17T00:57:46.837Z,2.70
2022-10-17T01:00:34.580Z,2.60
2022-10-17T01:03:21.771Z,2.70
2022-10-17T01:06:08.705Z,3.20
2022-10-17T01:08:55.897Z,2.70
2022-10-17T01:12:10.310Z,3.17
2022-10-17T01:15:07.810Z,3.30
2022-10-17T01:18:32.572Z,2.67
2022-10-17T01:21:42.304Z,2.83
2022-10-17T01:25:00.968Z,2.90
2022-10-17T01:27:52.773Z,2.80
2022-10-17T01:31:06.569Z,2.90
2022-10-17T01:34:22.201Z,2.97
2022-10-17T01:37:27.913Z,2.83
2022-10-17T01:40:27.281Z,3.00
2022-10-17T01:43:26.976Z,2.63
2022-10-17T01:46:22.908Z,3.03
2022-10-17T01:49:12.939Z,3.70
2022-10-17T01:52:11.548Z,3.10
2022-10-17T01:55:07.669Z,3.37
2022-10-17T01:58:09.215Z,3.50
2022-10-17T02:00:57.962Z,3.30
2022-10-17T02:03:48.598Z,3.50
2022-10-17T02:06:39.005Z,3.20
2022-10-17T02:09:27.124Z,2.80
2022-10-17T02:12:32.101Z,3.30
2022-10-17T02:15:55.645Z,3.10
2022-10-17T02:18:48.134Z,3.27
2022-10-17T02:21:46.962Z,3.20
2022-10-17T02:24:45.625Z,3.37
2022-10-17T02:27:55.858Z,3.77
2022-10-17T02:30:45.736Z,3.73
2022-10-17T02:33:59.582Z,3.63
2022-10-17T02:36:51.788Z,2.93
2022-10-17T02:39:40.613Z,3.20
2022-10-17T02:42:28.825Z,2.80
2022-10-17T02:45:16.647Z,2.97
2022-10-17T02:48:20.546Z,3.10
2022-10-17T02:51:19.701Z,2.80
2022-10-17T02:54:21.813Z,3.03
2022-10-17T02:57:27.933Z,3.67
2022-10-17T03:00:16.872Z,3.23
2022-10-17T03:03:29.073Z,2.93
2022-10-17T03:06:16.402Z,3.20
2022-10-17T03:09:04.149Z,3.03
2022-10-17T03:11:51.148Z,3.40
2022-10-17T03:14:38.072Z,3.13
2022-10-17T03:17:25.018Z,2.90
2022-10-17T03:20:12.024Z,3.13
2022-10-17T03:22:59.120Z,3.30
2022-10-17T03:25:46.028Z,2.80
2022-10-17T03:28:33.583Z,3.10
2022-10-17T03:31:20.992Z,3.57
2022-10-17T03:34:07.887Z,2.87
2022-10-17T03:36:54.787Z,3.23
2022-10-17T03:39:41.728Z,3.10
2022-10-17T03:42:28.763Z,2.87
2022-10-17T03:45:15.789Z,3.00
2022-10-17T03:48:02.738Z,3.50
2022-10-17T03:50:49.854Z,3.50
2022-10-17T03:53:36.976Z,3.20
2022-10-17T03:56:25.472Z,3.43
2022-10-17T03:59:15.960Z,3.50
2022-10-17T04:02:02.930Z,3.40
2022-10-17T04:04:49.877Z,3.27
2022-10-17T04:07:39.714Z,2.70
2022-10-17T04:10:26.647Z,3.00
2022-10-17T04:13:13.966Z,3.00
2022-10-17T04:16:07.188Z,3.10
2022-10-17T04:18:58.784Z,2.90
2022-10-17T04:21:45.753Z,2.83
2022-10-17T04:24:32.739Z,2.80
2022-10-17T04:27:19.698Z,2.37
2022-10-17T04:30:07.227Z,2.60
2022-10-17T04:32:54.161Z,2.73
2022-10-17T04:35:41.090Z,2.80
2022-10-17T04:38:29.248Z,3.00
2022-10-17T04:41:18.215Z,2.90
2022-10-17T04:44:05.301Z,2.50
2022-10-17T04:46:52.240Z,2.80
2022-10-17T04:49:39.158Z,2.60
2022-10-17T04:52:26.717Z,2.67
2022-10-17T04:55:13.874Z,2.60
2022-10-17T04:58:00.786Z,2.30
2022-10-17T05:00:47.777Z,2.67
2022-10-17T05:03:35.669Z,2.50
2022-10-17T05:06:25.271Z,2.40
2022-10-17T05:09:12.205Z,2.90
2022-10-17T05:11:59.359Z,2.67
2022-10-17T05:14:46.265Z,3.60
2022-10-17T05:17:33.172Z,3.17
2022-10-17T05:20:20.059Z,3.80
2022-10-17T05:23:06.986Z,3.00
2022-10-17T05:25:55.269Z,3.10
2022-10-17T05:28:42.478Z,2.67
2022-10-17T05:31:30.351Z,2.90
2022-10-17T05:34:17.377Z,2.87
2022-10-17T05:37:04.297Z,2.73
2022-10-17T05:39:51.593Z,2.80
2022-10-17T05:45:30.547Z,2.43
2022-10-17T05:48:17.475Z,2.80
2022-10-17T05:51:07.852Z,2.60
2022-10-17T05:53:54.844Z,2.70
2022-10-17T05:56:41.785Z,2.87
2022-10-17T05:59:28.854Z,3.73
2022-10-17T06:02:15.902Z,3.23
2022-10-17T06:05:03.161Z,2.87
2022-10-17T06:07:52.402Z,3.13
2022-10-17T06:10:39.440Z,2.90
2022-10-17T06:13:26.711Z,2.70
2022-10-17T06:16:13.678Z,2.50
2022-10-17T06:19:00.644Z,2.57
2022-10-17T06:21:47.581Z,2.37
2022-10-17T06:24:34.524Z,3.27
2022-10-17T06:27:21.616Z,3.20
2022-10-17T06:30:08.971Z,3.10
2022-10-17T06:32:56.021Z,2.73
2022-10-17T06:35:42.946Z,2.80
2022-10-17T06:38:30.139Z,2.73
2022-10-17T06:41:19.217Z,2.70
2022-10-17T06:44:10.922Z,2.70
2022-10-17T06:47:01.688Z,2.70
2022-10-17T06:49:48.651Z,2.73
2022-10-17T06:52:35.575Z,2.53
2022-10-17T06:55:23.395Z,2.77
2022-10-17T06:58:10.414Z,2.53
2022-10-17T07:01:11.838Z,2.83
2022-10-17T07:03:58.762Z,3.23
2022-10-17T07:06:45.816Z,2.90
2022-10-17T07:09:32.989Z,2.67
2022-10-17T07:12:19.984Z,3.10
2022-10-17T07:15:07.290Z,2.83
2022-10-17T07:17:54.253Z,3.40
2022-10-17T07:20:41.324Z,2.97
2022-10-17T07:23:28.288Z,3.10
2022-10-17T07:26:17.744Z,2.90
2022-10-17T07:29:06.287Z,3.00
2022-10-17T07:31:53.314Z,2.90
2022-10-17T07:34:40.257Z,3.07
2022-10-17T07:37:27.589Z,2.80
2022-10-17T07:40:14.985Z,2.57
2022-10-17T07:43:01.953Z,2.70
2022-10-17T07:45:49.007Z,3.10
2022-10-17T07:48:35.975Z,3.17
2022-10-17T07:51:22.967Z,2.53
2022-10-17T07:54:10.051Z,2.83
2022-10-17T07:56:56.930Z,2.70
2022-10-17T07:59:43.854Z,3.00
2022-10-17T08:02:31.119Z,2.57
2022-10-17T08:05:18.163Z,2.70
2022-10-17T08:08:05.191Z,2.60
2022-10-17T08:10:52.269Z,2.53
2022-10-17T08:13:40.335Z,2.50
2022-10-17T08:16:27.316Z,2.50
2022-10-17T08:19:14.213Z,2.70
2022-10-17T08:22:02.084Z,2.63
2022-10-17T08:24:48.997Z,2.40
2022-10-17T08:27:36.115Z,2.40
2022-10-17T08:30:23.059Z,2.50
2022-10-17T08:33:09.959Z,2.37
2022-10-17T08:35:59.633Z,2.27
2022-10-17T08:38:50.309Z,2.70
2022-10-17T08:42:01.082Z,2.40
2022-10-17T08:45:15.671Z,2.40
2022-10-17T08:48:08.376Z,2.33
2022-10-17T08:51:10.715Z,2.60
2022-10-17T08:54:13.687Z,2.60
2022-10-17T08:57:00.666Z,2.70
2022-10-17T08:59:52.125Z,2.60
2022-10-17T09:02:42.028Z,2.40
2022-10-17T09:05:37.283Z,2.40
2022-10-17T09:09:03.372Z,2.13
2022-10-17T09:12:05.967Z,2.22
2022-10-17T09:15:14.407Z,2.10
2022-10-17T09:18:09.423Z,2.35
2022-10-17T09:21:18.458Z,2.25
2022-10-17T09:24:15.841Z,2.20
2022-10-17T09:27:03.702Z,2.40
2022-10-17T09:29:58.572Z,2.42
2022-10-17T09:32:47.560Z,2.35
2022-10-17T09:35:35.130Z,2.08
2022-10-17T09:38:25.842Z,2.33
2022-10-17T09:41:44.103Z,2.72
2022-10-17T09:44:34.784Z,2.70
2022-10-17T09:47:31.845Z,2.38
2022-10-17T09:50:31.700Z,2.30
2022-10-17T09:53:30.223Z,2.28
2022-10-17T09:56:18.881Z,2.58
2022-10-17T09:59:09.280Z,2.20
2022-10-17T10:02:13.544Z,2.63
2022-10-17T10:05:18.970Z,2.40
2022-10-17T10:08:18.759Z,2.20
2022-10-17T10:11:13.453Z,2.47
2022-10-17T10:14:12.274Z,2.10
2022-10-17T10:17:00.996Z,2.47
2022-10-17T10:19:51.972Z,2.58
2022-10-17T10:22:39.009Z,2.55
2022-10-17T10:25:25.925Z,2.20
2022-10-17T10:28:15.941Z,2.47
2022-10-17T10:31:06.513Z,2.28
2022-10-17T10:33:56.773Z,2.47
2022-10-17T10:36:48.848Z,2.60
2022-10-17T10:39:49.823Z,2.40
2022-10-17T10:42:41.169Z,2.58
2022-10-17T10:45:52.571Z,2.50
2022-10-17T10:48:58.509Z,2.53
2022-10-17T10:51:49.538Z,2.40
2022-10-17T10:54:42.288Z,2.33
2022-10-17T10:57:31.950Z,2.80
2022-10-17T11:00:24.729Z,2.60
2022-10-17T11:03:35.590Z,2.20
2022-10-17T11:06:34.365Z,2.60
2022-10-17T11:09:42.452Z,2.85
2022-10-17T11:12:39.209Z,2.55
2022-10-17T11:15:44.245Z,2.50
2022-10-17T11:19:13.717Z,2.63
2022-10-17T11:22:26.625Z,2.70
2022-10-17T11:25:37.788Z,3.00
2022-10-17T11:28:25.597Z,2.97
2022-10-17T11:31:14.813Z,2.65
2022-10-17T11:34:05.812Z,3.13
2022-10-17T11:37:00.169Z,2.85
2022-10-17T11:40:02.094Z,3.15
2022-10-17T11:43:16.265Z,3.15
2022-10-17T11:46:19.043Z,2.83
2022-10-17T11:49:28.466Z,2.80
2022-10-17T11:52:57.136Z,2.80
2022-10-17T11:55:45.809Z,2.60
2022-10-17T11:58:39.544Z,2.83
2022-10-17T12:01:47.810Z,3.28
2022-10-17T12:04:37.793Z,3.22
2022-10-17T12:08:00.056Z,3.20
2022-10-17T12:10:58.272Z,3.65
2022-10-17T12:13:51.808Z,3.08
2022-10-17T12:16:43.772Z,3.10
2022-10-17T12:19:37.786Z,3.03
2022-10-17T12:22:26.332Z,3.10
2022-10-17T12:25:20.220Z,2.55
2022-10-17T12:28:07.113Z,2.90
2022-10-17T12:31:00.116Z,3.00
2022-10-17T12:33:55.737Z,2.90
2022-10-17T12:36:42.652Z,3.00
2022-10-17T12:39:29.519Z,3.30
2022-10-17T12:42:33.273Z,3.20
2022-10-17T12:45:53.259Z,3.38
2022-10-17T12:48:40.176Z,3.58
2022-10-17T12:51:35.632Z,3.33
2022-10-17T12:54:22.989Z,3.55
2022-10-17T12:57:36.061Z,3.50
2022-10-17T13:00:43.869Z,3.60
2022-10-17T13:03:44.503Z,3.30
2022-10-17T13:06:39.944Z,3.35
2022-10-17T13:09:29.697Z,3.60
2022-10-17T13:12:24.818Z,3.13
2022-10-17T13:15:16.518Z,3.22
2022-10-17T13:18:03.951Z,3.38
2022-10-17T13:21:14.144Z,3.50
2022-10-17T13:24:01.334Z,3.65
2022-10-17T13:26:48.548Z,3.72
2022-10-17T13:29:35.579Z,4.00
2022-10-17T13:32:24.455Z,4.20
2022-10-17T13:35:14.491Z,3.53
2022-10-17T13:38:04.267Z,4.25
2022-10-17T13:40:51.215Z,3.90
2022-10-17T13:43:38.808Z,4.00
2022-10-17T13:46:38.036Z,3.80
2022-10-17T13:49:33.885Z,5.38
2022-10-17T13:52:24.781Z,5.65
2022-10-17T13:55:17.814Z,6.57
2022-10-17T13:58:17.867Z,6.38
2022-10-17T14:01:05.605Z,5.70
2022-10-17T14:04:07.265Z,6.05
2022-10-17T14:06:55.655Z,6.00
2022-10-17T14:09:46.737Z,6.40
2022-10-17T14:12:34.513Z,6.07
2022-10-17T14:15:28.158Z,7.10
2022-10-17T14:18:20.022Z,7.55
2022-10-17T14:24:23.623Z,7.88
2022-10-17T14:27:25.742Z,7.80
2022-10-17T14:33:37.361Z,7.97
2022-10-17T14:36:42.608Z,7.05
2022-10-17T14:39:29.909Z,7.38
2022-10-17T14:42:22.587Z,7.93
2022-10-17T14:45:14.566Z,7.70
2022-10-17T14:48:21.405Z,7.87
2022-10-17T14:51:14.101Z,7.90
2022-10-17T14:54:29.675Z,7.78
2022-10-17T14:57:41.731Z,8.02
2022-10-17T15:00:28.726Z,7.68
2022-10-17T15:03:15.717Z,8.02
2022-10-17T15:06:19.989Z,7.47
2022-10-17T15:09:07.168Z,7.20
2022-10-17T15:11:55.671Z,7.22
2022-10-17T15:14:43.384Z,7.63
2022-10-17T15:17:31.481Z,7.88
2022-10-17T15:20:19.211Z,8.15
2022-10-17T15:23:06.136Z,7.93
2022-10-17T15:25:53.575Z,10.05
2022-10-17T15:28:40.588Z,9.52
2022-10-17T15:31:29.240Z,10.00
2022-10-17T15:34:16.201Z,10.13
2022-10-17T15:37:04.722Z,10.60
2022-10-17T15:39:54.286Z,11.53
2022-10-17T15:42:41.329Z,10.95
2022-10-17T15:45:28.373Z,11.40
2022-10-17T15:48:21.645Z,12.00
2022-10-17T15:51:09.080Z,11.32
2022-10-17T15:53:56.035Z,11.48
2022-10-17T15:56:46.384Z,11.50
2022-10-17T15:59:35.369Z,10.93
2022-10-17T16:02:23.764Z,11.67
2022-10-17T16:05:19.260Z,12.03
2022-10-17T16:08:06.203Z,11.80
2022-10-17T16:10:53.283Z,11.70
2022-10-17T16:13:42.411Z,12.15
2022-10-17T16:16:29.859Z,10.88
2022-10-17T16:19:16.890Z,11.17
2022-10-17T16:22:05.642Z,11.57
2022-10-17T16:24:58.416Z,12.30
2022-10-17T16:27:47.173Z,12.32
2022-10-17T16:30:42.270Z,12.23
2022-10-17T16:33:31.239Z,11.75
2022-10-17T16:36:18.290Z,13.48
2022-10-17T16:39:05.463Z,13.40
2022-10-17T16:41:54.813Z,13.18
2022-10-17T16:44:44.943Z,12.80
2022-10-17T16:47:31.903Z,13.90
2022-10-17T16:50:19.865Z,14.55
2022-10-17T16:53:06.836Z,13.83
2022-10-17T16:56:04.648Z,12.40
2022-10-17T16:58:52.816Z,13.52
2022-10-17T17:01:39.764Z,14.07
2022-10-17T17:04:26.662Z,16.60
2022-10-17T17:07:13.734Z,14.60
2022-10-17T17:10:00.665Z,14.93
2022-10-17T17:12:47.565Z,14.00
2022-10-17T17:15:34.519Z,13.40
2022-10-17T17:18:21.926Z,12.27
2022-10-17T17:21:10.396Z,11.13
2022-10-17T17:24:00.038Z,11.17
2022-10-17T17:26:54.384Z,11.43
2022-10-17T17:29:41.318Z,11.57
2022-10-17T17:32:28.241Z,11.07
2022-10-17T17:35:15.201Z,11.63
2022-10-17T17:38:02.989Z,13.10
2022-10-17T17:40:51.196Z,13.50
2022-10-17T17:43:38.287Z,12.90
2022-10-17T17:46:25.643Z,13.47
2022-10-17T17:49:13.060Z,14.37
2022-10-17T17:52:00.039Z,14.80
2022-10-17T17:54:47.082Z,15.30
2022-10-17T17:57:33.976Z,16.53
2022-10-17T18:00:20.963Z,15.40
2022-10-17T18:03:08.416Z,16.47
2022-10-17T18:05:55.339Z,14.30
2022-10-17T18:08:47.213Z,15.97
2022-10-17T18:11:34.572Z,15.03
2022-10-17T18:14:23.885Z,15.00
2022-10-17T18:17:10.832Z,14.27
2022-10-17T18:19:57.801Z,12.80
2022-10-17T18:22:45.020Z,12.80
2022-10-17T18:25:31.965Z,12.40
2022-10-17T18:28:19.216Z,12.70
2022-10-17T18:31:21.918Z,12.90
2022-10-17T18:34:09.400Z,12.80
2022-10-17T18:36:56.411Z,12.77
2022-10-17T18:39:43.317Z,12.50
2022-10-17T18:42:30.575Z,12.67
2022-10-17T18:45:17.735Z,12.53
2022-10-17T18:48:04.971Z,12.10
2022-10-17T18:50:52.134Z,11.47
2022-10-17T18:53:41.460Z,10.73
2022-10-17T18:56:28.544Z,10.80
2022-10-17T18:59:15.702Z,9.50
2022-10-17T19:02:02.691Z,7.97
2022-10-17T19:07:41.458Z,6.67
2022-10-17T19:10:28.339Z,6.80
2022-10-17T19:13:20.703Z,6.67
2022-10-17T19:16:10.350Z,5.57
2022-10-17T19:19:00.089Z,6.03
2022-10-17T19:21:47.559Z,4.77
2022-10-17T19:24:34.445Z,4.37
2022-10-17T19:27:21.432Z,3.67
2022-10-17T19:30:09.111Z,3.70
2022-10-17T19:32:56.114Z,2.93
2022-10-17T19:35:43.015Z,2.80
2022-10-17T19:38:30.010Z,2.73
2022-10-17T19:41:16.913Z,2.73
2022-10-17T19:44:03.884Z,2.50
2022-10-17T19:46:50.872Z,2.30
2022-10-17T19:49:37.800Z,2.37
2022-10-17T19:52:24.688Z,2.87
2022-10-17T19:55:11.596Z,2.47
2022-10-17T19:58:01.407Z,2.90
2022-10-17T20:00:54.914Z,2.70
2022-10-17T20:03:42.015Z,2.67
2022-10-17T20:06:29.089Z,2.50
2022-10-17T20:09:17.394Z,2.50
2022-10-17T20:12:04.470Z,2.53
2022-10-17T20:14:51.349Z,2.67
2022-10-17T20:17:38.302Z,2.60
2022-10-17T20:20:25.664Z,3.07
2022-10-17T20:23:12.592Z,3.13
2022-10-17T20:26:13.224Z,3.13
2022-10-17T20:29:18.653Z,2.70
2022-10-17T20:32:05.730Z,3.73
2022-10-17T20:34:52.657Z,3.40
2022-10-17T20:37:42.593Z,3.37
2022-10-17T20:40:35.331Z,4.03
2022-10-17T20:43:22.567Z,3.60
2022-10-17T20:46:29.520Z,4.03
2022-10-17T20:49:22.704Z,3.47
2022-10-17T20:52:09.629Z,3.63
2022-10-17T20:54:56.557Z,4.17
2022-10-17T20:57:43.481Z,4.13
2022-10-17T21:00:30.485Z,3.40
2022-10-17T21:03:17.444Z,3.90
2022-10-17T21:06:04.923Z,4.20
2022-10-17T21:08:55.968Z,3.87
2022-10-17T21:11:43.295Z,3.27
2022-10-17T21:14:30.589Z,3.53
2022-10-17T21:17:17.485Z,3.70
2022-10-17T21:20:04.900Z,3.40
2022-10-17T21:22:52.187Z,2.83
2022-10-17T21:25:40.746Z,3.07
2022-10-17T21:28:27.885Z,3.17
2022-10-17T21:31:19.224Z,2.80
2022-10-17T21:34:09.129Z,2.57
2022-10-17T21:36:56.062Z,2.33
2022-10-17T21:39:42.960Z,2.30
2022-10-17T21:42:30.204Z,2.47
2022-10-17T21:45:25.242Z,2.10
2022-10-17T21:48:13.585Z,3.47
2022-10-17T21:51:03.316Z,2.47
2022-10-17T21:53:51.308Z,2.27
2022-10-17T21:56:38.241Z,2.20
2022-10-17T21:59:25.192Z,2.43
2022-10-17T22:02:14.570Z,2.43
2022-10-17T22:05:01.482Z,2.40
2022-10-17T22:07:48.466Z,2.37
2022-10-17T22:10:39.473Z,2.50
2022-10-17T22:13:26.645Z,2.37
2022-10-17T22:16:16.175Z,2.27
2022-10-17T22:19:06.494Z,2.97
2022-10-17T22:21:54.632Z,2.70
2022-10-17T22:24:41.519Z,2.87
2022-10-17T22:27:28.759Z,3.50
2022-10-17T22:30:16.053Z,2.70
2022-10-17T22:33:02.985Z,3.00
2022-10-17T22:35:50.103Z,3.07
2022-10-17T22:38:37.552Z,3.07
2022-10-17T22:41:24.500Z,3.30
2022-10-17T22:44:11.479Z,3.27
2022-10-17T22:46:58.427Z,3.73
2022-10-17T22:49:45.329Z,3.37
2022-10-17T22:52:32.532Z,4.03
2022-10-17T22:55:19.703Z,4.10
2022-10-17T22:58:06.698Z,3.87
2022-10-17T23:00:54.241Z,3.93
2022-10-17T23:03:41.182Z,4.50
2022-10-17T23:06:28.133Z,4.40
2022-10-17T23:09:15.062Z,5.53
2022-10-17T23:12:01.990Z,5.37
2022-10-17T23:14:48.931Z,5.87
2022-10-17T23:17:35.828Z,6.10
2022-10-17T23:20:22.782Z,6.87
2022-10-17T23:23:09.764Z,6.70
2022-10-17T23:26:07.213Z,7.00
2022-10-17T23:28:54.937Z,7.37
2022-10-17T23:31:41.969Z,6.60
2022-10-17T23:34:29.128Z,8.17
2022-10-17T23:37:16.054Z,8.10
2022-10-17T23:40:04.936Z,8.57
2022-10-17T23:42:51.925Z,8.60
2022-10-17T23:48:30.871Z,9.57
2022-10-17T23:51:17.808Z,8.63
2022-10-17T23:54:04.761Z,10.87
2022-10-17T23:56:51.690Z,9.60
2022-10-17T23:59:38.640Z,9.43
